createdAt,value
2019-02-16T00:02:08.139Z,55.97
2019-02-16T00:06:13.500Z,56.35
2019-02-16T00:10:18.866Z,56.63
2019-02-16T00:14:24.228Z,56.90
2019-02-16T00:18:29.879Z,56.91
2019-02-16T00:22:35.586Z,56.74
2019-02-16T00:26:40.849Z,56.50
2019-02-16T00:30:46.448Z,57.10
2019-02-16T00:34:51.860Z,57.16
2019-02-16T00:38:57.373Z,57.42
2019-02-16T00:43:02.929Z,57.88
2019-02-16T00:47:08.370Z,56.63
2019-02-16T00:51:14.163Z,57.10
2019-02-16T00:55:20.496Z,58.29
2019-02-16T00:59:27.828Z,58.32
2019-02-16T01:03:33.085Z,59.05
2019-02-16T01:07:38.358Z,58.77
2019-02-16T01:11:43.728Z,58.68
2019-02-16T01:15:49.082Z,58.96
2019-02-16T01:19:54.784Z,57.75
2019-02-16T01:24:00.149Z,58.02
2019-02-16T01:28:05.495Z,58.63
2019-02-16T01:32:11.012Z,58.57
2019-02-16T01:36:16.460Z,59.04
2019-02-16T01:40:22.033Z,59.35
2019-02-16T01:44:27.850Z,59.86
2019-02-16T01:48:33.227Z,60.22
2019-02-16T01:52:38.667Z,59.88
2019-02-16T01:56:44.115Z,59.42
2019-02-16T02:00:49.579Z,59.24
2019-02-16T02:04:54.894Z,61.03
2019-02-16T02:09:00.377Z,60.40
2019-02-16T02:13:05.850Z,60.12
2019-02-16T02:17:11.337Z,61.24
2019-02-16T02:21:17.086Z,60.76
2019-02-16T02:25:22.464Z,61.54
2019-02-16T02:29:28.169Z,62.67
2019-02-16T02:33:33.614Z,62.73
2019-02-16T02:37:38.985Z,63.85
2019-02-16T02:41:44.391Z,64.05
2019-02-16T02:45:49.588Z,64.39
2019-02-16T02:49:55.042Z,64.76
2019-02-16T02:54:00.584Z,65.82
2019-02-16T02:58:05.973Z,66.47
2019-02-16T03:02:11.321Z,67.21
2019-02-16T03:06:16.690Z,67.23
2019-02-16T03:10:22.384Z,67.96
2019-02-16T03:14:27.783Z,67.97
2019-02-16T03:18:33.098Z,68.43
2019-02-16T03:23:19.928Z,68.24
2019-02-16T03:28:32.246Z,70.32
2019-02-16T03:33:24.837Z,69.31
2019-02-16T03:38:00.442Z,70.90
2019-02-16T03:42:06.482Z,70.53
2019-02-16T03:46:12.023Z,71.55
2019-02-16T03:50:17.916Z,71.06
2019-02-16T03:54:23.430Z,71.52
2019-02-16T03:58:30.217Z,70.66
2019-02-16T04:02:35.569Z,69.70
2019-02-16T04:06:40.967Z,70.58
2019-02-16T04:10:46.299Z,71.37
2019-02-16T04:14:51.673Z,71.03
2019-02-16T04:18:57.304Z,71.97
2019-02-16T04:23:02.778Z,72.08
2019-02-16T04:27:08.216Z,71.94
2019-02-16T04:31:13.571Z,71.96
2019-02-16T04:35:18.969Z,71.90
2019-02-16T04:39:24.697Z,71.77
2019-02-16T04:43:30.146Z,71.71
2019-02-16T04:47:35.818Z,72.20
2019-02-16T04:51:41.450Z,71.62
2019-02-16T04:55:47.078Z,71.93
2019-02-16T04:59:52.569Z,70.33
2019-02-16T05:03:57.851Z,70.91
2019-02-16T05:08:03.148Z,70.89
2019-02-16T05:12:08.466Z,71.15
2019-02-16T05:16:13.948Z,72.00
2019-02-16T05:20:19.293Z,71.21
2019-02-16T05:24:24.586Z,72.03
2019-02-16T05:28:29.986Z,71.66
2019-02-16T05:32:35.612Z,70.59
2019-02-16T05:36:41.040Z,71.59
2019-02-16T05:40:46.768Z,71.79
2019-02-16T05:44:52.047Z,70.75
2019-02-16T05:48:57.497Z,70.58
2019-02-16T05:53:02.876Z,71.78
2019-02-16T05:57:08.202Z,72.13
2019-02-16T06:01:13.654Z,71.90
2019-02-16T06:05:18.907Z,72.41
2019-02-16T06:09:24.345Z,72.74
2019-02-16T06:13:29.773Z,73.13
2019-02-16T06:17:35.145Z,73.08
2019-02-16T06:21:40.631Z,73.79
2019-02-16T06:25:45.988Z,73.64
2019-02-16T06:29:53.477Z,74.02
2019-02-16T06:33:58.929Z,74.61
2019-02-16T06:38:04.651Z,74.02
2019-02-16T06:42:09.933Z,75.21
2019-02-16T06:46:15.269Z,74.51
2019-02-16T06:50:20.723Z,74.39
2019-02-16T06:54:26.090Z,75.07
2019-02-16T06:58:31.553Z,75.86
2019-02-16T07:02:37.129Z,74.54
2019-02-16T07:06:47.020Z,74.27
2019-02-16T07:10:52.883Z,74.87
2019-02-16T07:14:58.175Z,74.50
2019-02-16T07:19:28.833Z,73.90
2019-02-16T07:23:34.480Z,73.88
2019-02-16T07:27:39.981Z,72.21
2019-02-16T07:31:45.751Z,71.85
2019-02-16T07:35:51.335Z,72.91
2019-02-16T07:39:56.595Z,72.19
2019-02-16T07:44:23.726Z,71.58
2019-02-16T07:48:37.327Z,70.40
2019-02-16T07:52:58.339Z,70.82
2019-02-16T07:57:19.367Z,69.10
2019-02-16T08:01:29.852Z,69.23
2019-02-16T08:05:43.255Z,67.97
2019-02-16T08:10:06.778Z,67.07
2019-02-16T08:14:19.398Z,66.65
2019-02-16T08:18:30.980Z,68.08
2019-02-16T08:22:55.364Z,64.92
2019-02-16T08:27:22.672Z,65.34
2019-02-16T08:31:40.543Z,65.41
2019-02-16T08:36:17.540Z,64.03
2019-02-16T08:40:57.462Z,63.18
2019-02-16T08:45:09.346Z,62.73
2019-02-16T08:49:24.950Z,61.93
2019-02-16T08:53:50.176Z,62.49
2019-02-16T08:58:12.194Z,59.30
2019-02-16T09:02:45.526Z,59.56
2019-02-16T09:07:21.874Z,58.79
2019-02-16T09:11:45.315Z,60.25
2019-02-16T09:15:56.564Z,60.75
2019-02-16T09:20:26.879Z,57.47
2019-02-16T09:24:42.265Z,59.92
2019-02-16T09:29:05.378Z,55.75
2019-02-16T09:33:28.836Z,55.29
2019-02-16T09:37:42.766Z,53.37
2019-02-16T09:41:58.971Z,55.48
2019-02-16T09:46:22.190Z,54.08
2019-02-16T09:50:42.953Z,52.37
2019-02-16T09:55:10.269Z,53.27
2019-02-16T09:59:28.675Z,51.43
2019-02-16T10:03:43.869Z,51.77
2019-02-16T10:08:15.732Z,51.09
2019-02-16T10:12:29.193Z,51.59
2019-02-16T10:16:59.443Z,50.18
2019-02-16T10:21:22.525Z,50.20
2019-02-16T10:25:56.152Z,51.93
2019-02-16T10:30:11.487Z,50.18
2019-02-16T10:34:27.329Z,49.64
2019-02-16T10:38:40.484Z,49.60
2019-02-16T10:43:16.805Z,47.72
2019-02-16T10:47:44.140Z,48.37
2019-02-16T10:51:55.783Z,48.62
2019-02-16T10:56:26.019Z,46.41
2019-02-16T11:00:49.998Z,46.69
2019-02-16T11:05:13.847Z,45.25
2019-02-16T11:09:38.234Z,44.26
2019-02-16T11:14:05.537Z,46.56
2019-02-16T11:18:23.294Z,45.26
2019-02-16T11:22:44.073Z,45.42
2019-02-16T11:27:08.744Z,44.52
2019-02-16T11:31:25.007Z,43.58
2019-02-16T11:35:51.963Z,44.54
2019-02-16T11:40:12.096Z,42.94
2019-02-16T11:44:35.193Z,42.97
2019-02-16T11:49:02.610Z,44.99
2019-02-16T11:53:41.992Z,43.49
2019-02-16T11:58:06.891Z,43.35
2019-02-16T12:02:40.202Z,45.62
2019-02-16T12:07:04.507Z,42.96
2019-02-16T12:11:21.993Z,42.32
2019-02-16T12:15:45.342Z,42.95
2019-02-16T12:20:11.089Z,41.56
2019-02-16T12:24:38.238Z,42.70
2019-02-16T12:28:57.922Z,42.68
2019-02-16T12:33:20.968Z,41.96
2019-02-16T12:37:37.646Z,39.99
2019-02-16T12:42:01.043Z,40.00
2019-02-16T12:46:37.483Z,39.16
2019-02-16T12:51:00.423Z,38.48
2019-02-16T12:55:23.945Z,39.17
2019-02-16T12:59:47.018Z,36.07
2019-02-16T13:04:06.851Z,35.27
2019-02-16T13:08:37.153Z,36.22
2019-02-16T13:13:01.739Z,37.60
2019-02-16T13:17:19.874Z,36.76
2019-02-16T13:21:36.128Z,35.34
2019-02-16T13:26:00.139Z,36.72
2019-02-16T13:30:27.365Z,34.77
2019-02-16T13:34:54.456Z,35.68
2019-02-16T13:39:30.757Z,35.83
2019-02-16T13:44:10.369Z,35.41
2019-02-16T13:48:27.015Z,35.49
2019-02-16T13:52:47.538Z,36.56
2019-02-16T13:57:09.028Z,35.12
2019-02-16T14:01:31.334Z,36.57
2019-02-16T14:05:42.804Z,36.53
2019-02-16T14:10:05.908Z,37.17
2019-02-16T14:14:30.070Z,36.72
2019-02-16T14:18:35.712Z,35.81
2019-02-16T14:22:41.056Z,35.04
2019-02-16T14:26:46.513Z,36.62
2019-02-16T14:30:51.900Z,35.42
2019-02-16T14:34:57.368Z,37.58
2019-02-16T14:39:09.824Z,37.05
2019-02-16T14:43:15.114Z,36.68
2019-02-16T14:47:24.108Z,36.75
2019-02-16T14:51:29.985Z,37.02
2019-02-16T14:55:35.755Z,38.43
2019-02-16T14:59:41.012Z,37.69
2019-02-16T15:03:46.446Z,36.62
2019-02-16T15:07:52.152Z,39.30
2019-02-16T15:11:57.986Z,35.65
2019-02-16T15:16:03.434Z,36.35
2019-02-16T15:20:11.236Z,34.52
2019-02-16T15:24:16.617Z,36.90
2019-02-16T15:28:22.058Z,35.06
2019-02-16T15:32:27.257Z,36.65
2019-02-16T15:36:32.634Z,35.10
2019-02-16T15:40:38.073Z,36.58
2019-02-16T15:44:43.470Z,36.31
2019-02-16T15:48:48.859Z,36.46
2019-02-16T15:52:54.139Z,36.34
2019-02-16T15:56:59.701Z,39.51
2019-02-16T16:01:05.186Z,39.67
2019-02-16T16:05:10.611Z,40.26
2019-02-16T16:09:34.559Z,42.88
2019-02-16T16:14:02.047Z,40.81
2019-02-16T16:18:41.638Z,44.32
2019-02-16T16:23:04.895Z,45.87
2019-02-16T16:27:32.079Z,46.79
2019-02-16T16:31:48.381Z,46.55
2019-02-16T16:36:06.228Z,49.19
2019-02-16T16:40:22.862Z,50.46
2019-02-16T16:44:50.321Z,51.01
2019-02-16T16:49:03.205Z,51.55
2019-02-16T16:53:24.166Z,53.13
2019-02-16T16:57:35.038Z,53.00
2019-02-16T17:02:00.375Z,53.07
2019-02-16T17:06:17.540Z,54.65
2019-02-16T17:10:41.234Z,54.39
2019-02-16T17:15:05.557Z,55.42
2019-02-16T17:19:32.587Z,55.85
2019-02-16T17:23:45.139Z,55.36
2019-02-16T17:28:03.988Z,57.05
2019-02-16T17:32:17.868Z,56.90
2019-02-16T17:36:42.205Z,58.38
2019-02-16T17:41:21.630Z,58.67
2019-02-16T17:45:44.560Z,58.66
2019-02-16T17:50:14.924Z,58.85
2019-02-16T17:54:49.689Z,58.26
2019-02-16T17:59:26.365Z,58.23
2019-02-16T18:03:44.207Z,59.30
2019-02-16T18:08:17.989Z,59.35
2019-02-16T18:12:37.437Z,59.73
2019-02-16T18:17:00.471Z,59.98
2019-02-16T18:21:24.734Z,60.25
2019-02-16T18:25:49.158Z,61.77
2019-02-16T18:30:25.483Z,61.06
2019-02-16T18:34:39.242Z,61.28
2019-02-16T18:38:50.674Z,62.96
2019-02-16T18:43:15.176Z,63.76
2019-02-16T18:47:27.521Z,63.08
2019-02-16T18:51:52.183Z,63.93
2019-02-16T18:56:19.431Z,63.90
2019-02-16T19:00:31.084Z,63.44
2019-02-16T19:04:51.796Z,64.91
2019-02-16T19:09:04.061Z,64.63
2019-02-16T19:13:17.293Z,66.63
2019-02-16T19:17:34.764Z,65.63
2019-02-16T19:21:59.125Z,65.31
2019-02-16T19:26:22.478Z,65.77
2019-02-16T19:30:35.477Z,66.61
2019-02-16T19:34:56.257Z,66.43
2019-02-16T19:39:26.354Z,67.28
2019-02-16T19:43:56.766Z,66.92
2019-02-16T19:48:12.843Z,67.96
2019-02-16T19:52:28.826Z,67.35
2019-02-16T19:56:42.817Z,67.29
2019-02-16T20:00:58.192Z,68.34
2019-02-16T20:05:21.121Z,68.99
2019-02-16T20:09:32.451Z,69.31
2019-02-16T20:13:50.787Z,70.31
2019-02-16T20:18:05.660Z,69.68
2019-02-16T20:22:28.932Z,69.45
2019-02-16T20:27:07.608Z,68.66
2019-02-16T20:31:40.865Z,71.23
2019-02-16T20:36:07.947Z,70.14
2019-02-16T20:40:31.042Z,70.80
2019-02-16T20:44:45.331Z,70.82
2019-02-16T20:49:10.580Z,71.35
2019-02-16T20:53:44.234Z,71.97
2019-02-16T20:57:57.251Z,70.69
2019-02-16T21:02:24.435Z,70.32
2019-02-16T21:06:52.683Z,71.01
2019-02-16T21:11:18.138Z,74.45
2019-02-16T21:15:34.577Z,72.96
2019-02-16T21:20:01.848Z,73.13
2019-02-16T21:24:24.700Z,72.08
2019-02-16T21:28:54.760Z,73.54
2019-02-16T21:33:22.158Z,76.40
2019-02-16T21:37:46.406Z,73.80
2019-02-16T21:42:19.678Z,75.10
2019-02-16T21:46:43.926Z,74.67
2019-02-16T21:51:14.515Z,76.34
2019-02-16T21:55:43.197Z,73.49
2019-02-16T22:00:03.482Z,75.40
2019-02-16T22:04:30.783Z,73.22
2019-02-16T22:08:43.063Z,73.54
2019-02-16T22:13:05.964Z,77.23
2019-02-16T22:17:11.405Z,76.17
2019-02-16T22:21:16.776Z,76.51
2019-02-16T22:25:22.025Z,76.36
2019-02-16T22:29:27.527Z,75.97
2019-02-16T22:33:33.164Z,76.07
2019-02-16T22:37:38.887Z,76.52
2019-02-16T22:41:44.226Z,75.48
2019-02-16T22:45:49.509Z,76.36
2019-02-16T22:49:55.281Z,76.54
2019-02-16T22:54:01.060Z,77.91
2019-02-16T22:58:06.386Z,77.73
2019-02-16T23:02:13.015Z,77.15
2019-02-16T23:06:18.484Z,77.08
2019-02-16T23:10:23.969Z,76.82
2019-02-16T23:14:30.022Z,76.81
2019-02-16T23:18:35.447Z,77.34
2019-02-16T23:22:40.865Z,78.02
2019-02-16T23:26:46.284Z,77.39
2019-02-16T23:30:51.810Z,77.54
2019-02-16T23:34:57.482Z,77.65
2019-02-16T23:39:04.794Z,78.10
2019-02-16T23:43:10.190Z,78.22
2019-02-16T23:47:15.710Z,78.62
2019-02-16T23:51:21.206Z,79.33
2019-02-16T23:55:27.190Z,79.58
2019-02-16T23:59:32.509Z,80.82
